createdAt,value
2022-11-22T00:00:08.890Z,96701.69
2022-11-22T00:02:35.984Z,96698.88
2022-11-22T00:05:03.574Z,96699.47
2022-11-22T00:07:30.364Z,96708.09
2022-11-22T00:09:57.063Z,96708.09
2022-11-22T00:12:23.830Z,96700.91
2022-11-22T00:14:55.446Z,96704.09
2022-11-22T00:17:23.378Z,96700.09
2022-11-22T00:19:49.958Z,96700.94
2022-11-22T00:22:16.567Z,96701.16
2022-11-22T00:24:44.151Z,96701.56
2022-11-22T00:27:10.771Z,96697.16
2022-11-22T00:29:37.445Z,96686.53
2022-11-22T00:32:04.482Z,96678.72
2022-11-22T00:34:31.099Z,96666.47
2022-11-22T00:37:01.020Z,96660.69
2022-11-22T00:39:28.034Z,96661.47
2022-11-22T00:41:54.857Z,96651.03
2022-11-22T00:44:21.533Z,96647.44
2022-11-22T00:46:48.258Z,96641.41
2022-11-22T00:49:14.967Z,96648.84
2022-11-22T00:51:41.650Z,96642.63
2022-11-22T00:54:08.500Z,96646.25
2022-11-22T00:56:35.737Z,96653.25
2022-11-22T00:59:02.381Z,96660.69
2022-11-22T01:01:29.124Z,96663.88
2022-11-22T01:03:55.795Z,96666.69
2022-11-22T01:06:22.612Z,96665.53
2022-11-22T01:08:49.443Z,96671.94
2022-11-22T01:11:19.026Z,96668.13
2022-11-22T01:13:45.678Z,96675.53
2022-11-22T01:16:13.258Z,96680.72
2022-11-22T01:18:40.523Z,96689.75
2022-11-22T01:21:07.327Z,96693.75
2022-11-22T01:23:35.227Z,96699.19
2022-11-22T01:26:02.494Z,96702.19
2022-11-22T01:28:29.444Z,96702.75
2022-11-22T01:30:56.060Z,96694.13
2022-11-22T01:33:23.389Z,96687.75
2022-11-22T01:35:50.072Z,96683.13
2022-11-22T01:38:17.060Z,96691.75
2022-11-22T01:40:43.731Z,96690.13
2022-11-22T01:43:18.198Z,96680.09
2022-11-22T01:45:47.612Z,96678.69
2022-11-22T01:48:18.974Z,96675.28
2022-11-22T01:50:49.238Z,96671.09
2022-11-22T01:53:22.324Z,96664.88
2022-11-22T01:55:51.252Z,96667.88
2022-11-22T01:58:19.600Z,96674.69
2022-11-22T02:00:46.727Z,96672.94
2022-11-22T02:03:17.218Z,96666.06
2022-11-22T02:05:43.997Z,96664.88
2022-11-22T02:08:15.534Z,96670.47
2022-11-22T02:10:47.878Z,96664.91
2022-11-22T02:13:16.048Z,96668.72
2022-11-22T02:15:43.051Z,96676.16
2022-11-22T02:18:10.294Z,96675.72
2022-11-22T02:20:39.428Z,96662.28
2022-11-22T02:23:07.126Z,96655.69
2022-11-22T02:25:53.441Z,96669.31
2022-11-22T02:28:20.065Z,96668.72
2022-11-22T02:30:46.787Z,96660.09
2022-11-22T02:33:13.523Z,96668.72
2022-11-22T02:35:41.735Z,96659.50
2022-11-22T02:38:12.502Z,96661.53
2022-11-22T02:40:45.443Z,96661.31
2022-11-22T02:43:17.238Z,96656.13
2022-11-22T02:45:44.089Z,96662.53
2022-11-22T02:48:13.883Z,96656.91
2022-11-22T02:50:40.502Z,96656.09
2022-11-22T02:53:08.526Z,96649.69
2022-11-22T02:55:35.833Z,96660.13
2022-11-22T02:58:03.442Z,96665.75
2022-11-22T03:00:30.143Z,96653.94
2022-11-22T03:02:56.758Z,96656.53
2022-11-22T03:05:23.395Z,96660.75
2022-11-22T03:07:50.904Z,96661.16
2022-11-22T03:10:17.928Z,96665.75
2022-11-22T03:12:44.606Z,96669.34
2022-11-22T03:15:11.595Z,96667.72
2022-11-22T03:17:38.420Z,96667.72
2022-11-22T03:20:05.686Z,96667.94
2022-11-22T03:22:32.395Z,96669.16
2022-11-22T03:24:59.000Z,96675.56
2022-11-22T03:27:25.621Z,96678.59
2022-11-22T03:29:52.261Z,96680.00
2022-11-22T03:32:18.857Z,96679.38
2022-11-22T03:34:45.520Z,96685.19
2022-11-22T03:37:12.187Z,96678.41
2022-11-22T03:39:38.775Z,96680.78
2022-11-22T03:42:05.471Z,96682.00
2022-11-22T03:44:32.111Z,96671.56
2022-11-22T03:46:58.813Z,96670.56
2022-11-22T03:49:25.403Z,96678.38
2022-11-22T03:51:51.973Z,96692.81
2022-11-22T03:54:18.574Z,96701.22
2022-11-22T03:56:45.181Z,96706.44
2022-11-22T03:59:11.795Z,96713.44
2022-11-22T04:01:38.424Z,96717.84
2022-11-22T04:04:05.275Z,96717.84
2022-11-22T04:06:32.087Z,96720.06
2022-11-22T04:08:58.764Z,96720.47
2022-11-22T04:11:25.464Z,96716.25
2022-11-22T04:14:07.247Z,96719.06
2022-11-22T04:16:33.887Z,96719.25
2022-11-22T04:19:00.533Z,96717.03
2022-11-22T04:21:35.688Z,96718.66
2022-11-22T04:24:22.693Z,96714.03
2022-11-22T04:26:49.393Z,96709.41
2022-11-22T04:29:17.336Z,96712.63
2022-11-22T04:31:59.694Z,96706.63
2022-11-22T04:34:26.628Z,96704.19
2022-11-22T04:36:53.310Z,96705.59
2022-11-22T04:39:23.502Z,96711.59
2022-11-22T04:42:12.596Z,96717.00
2022-11-22T04:44:42.377Z,96707.59
2022-11-22T04:47:11.145Z,96699.38
2022-11-22T04:49:38.196Z,96696.56
2022-11-22T04:52:21.056Z,96693.16
2022-11-22T04:54:47.745Z,96694.94
2022-11-22T04:57:14.447Z,96699.75
2022-11-22T04:59:41.104Z,96706.97
2022-11-22T05:02:07.914Z,96710.19
2022-11-22T05:04:34.638Z,96715.97
2022-11-22T05:07:02.228Z,96725.19
2022-11-22T05:09:29.086Z,96730.63
2022-11-22T05:11:55.995Z,96739.22
2022-11-22T05:14:22.652Z,96745.63
2022-11-22T05:16:49.360Z,96745.03
2022-11-22T05:19:16.094Z,96747.66
2022-11-22T05:21:42.942Z,96746.03
2022-11-22T05:24:09.652Z,96739.41
2022-11-22T05:26:37.048Z,96737.81
2022-11-22T05:29:05.899Z,96730.19
2022-11-22T05:31:34.122Z,96743.03
2022-11-22T05:34:01.364Z,96746.66
2022-11-22T05:36:31.087Z,96749.25
2022-11-22T05:38:57.741Z,96753.47
2022-11-22T05:41:24.764Z,96765.13
2022-11-22T05:43:51.337Z,96772.94
2022-11-22T05:46:24.897Z,96776.53
2022-11-22T05:48:53.219Z,96775.53
2022-11-22T05:51:22.092Z,96782.31
2022-11-22T05:53:48.742Z,96790.34
2022-11-22T05:56:18.505Z,96799.38
2022-11-22T05:58:45.654Z,96807.19
2022-11-22T06:01:21.536Z,96812.41
2022-11-22T06:03:49.123Z,96800.38
2022-11-22T06:06:16.339Z,96816.63
2022-11-22T06:08:47.861Z,96819.63
2022-11-22T06:11:20.944Z,96818.84
2022-11-22T06:13:49.968Z,96831.28
2022-11-22T06:16:17.219Z,96827.66
2022-11-22T06:18:44.440Z,96829.84
2022-11-22T06:21:13.854Z,96824.44
2022-11-22T06:23:40.522Z,96826.66
2022-11-22T06:26:10.131Z,96832.69
2022-11-22T06:28:38.579Z,96839.28
2022-11-22T06:31:08.120Z,96846.31
2022-11-22T06:33:34.952Z,96844.91
2022-11-22T06:36:04.035Z,96847.31
2022-11-22T06:38:30.687Z,96849.31
2022-11-22T06:41:01.509Z,96853.72
2022-11-22T06:43:29.840Z,96863.16
2022-11-22T06:45:58.987Z,96853.31
2022-11-22T06:48:26.916Z,96858.94
2022-11-22T06:51:00.422Z,96851.69
2022-11-22T06:53:46.168Z,96848.72
2022-11-22T06:56:17.220Z,96853.09
2022-11-22T06:58:45.124Z,96850.31
2022-11-22T07:01:15.126Z,96849.69
2022-11-22T07:03:42.918Z,96851.31
2022-11-22T07:06:11.733Z,96854.69
2022-11-22T07:08:39.384Z,96861.09
2022-11-22T07:11:09.546Z,96868.75
2022-11-22T07:13:36.951Z,96866.13
2022-11-22T07:16:06.116Z,96865.09
2022-11-22T07:18:33.248Z,96862.50
2022-11-22T07:21:05.684Z,96867.72
2022-11-22T07:23:34.935Z,96859.69
2022-11-22T07:26:01.574Z,96857.50
2022-11-22T07:28:28.316Z,96863.50
2022-11-22T07:31:00.437Z,96863.13
2022-11-22T07:33:27.231Z,96873.34
2022-11-22T07:35:54.274Z,96871.75
2022-11-22T07:38:21.253Z,96873.16
2022-11-22T07:40:48.036Z,96872.34
2022-11-22T07:43:15.311Z,96870.53
2022-11-22T07:45:41.891Z,96867.13
2022-11-22T07:48:08.555Z,96867.31
2022-11-22T07:50:35.148Z,96861.28
2022-11-22T07:53:01.775Z,96863.69
2022-11-22T07:55:28.752Z,96871.16
2022-11-22T07:57:58.746Z,96875.72
2022-11-22T08:00:25.859Z,96877.75
2022-11-22T08:02:52.614Z,96873.72
2022-11-22T08:05:19.775Z,96881.97
2022-11-22T08:07:48.359Z,96888.56
2022-11-22T08:10:15.166Z,96888.53
2022-11-22T08:12:41.993Z,96890.34
2022-11-22T08:15:10.245Z,96892.38
2022-11-22T08:17:38.257Z,96901.44
2022-11-22T08:20:06.512Z,96906.44
2022-11-22T08:22:33.091Z,96911.44
2022-11-22T08:24:59.736Z,96920.69
2022-11-22T08:27:26.353Z,96922.66
2022-11-22T08:29:53.149Z,96924.72
2022-11-22T08:32:19.850Z,96917.09
2022-11-22T08:34:47.427Z,96915.88
2022-11-22T08:37:14.328Z,96911.88
2022-11-22T08:39:44.187Z,96906.84
2022-11-22T08:42:10.814Z,96907.25
2022-11-22T08:44:37.417Z,96907.88
2022-11-22T08:47:04.056Z,96917.50
2022-11-22T08:49:30.766Z,96925.94
2022-11-22T08:51:57.473Z,96927.53
2022-11-22T08:54:24.454Z,96940.38
2022-11-22T08:56:51.146Z,96947.22
2022-11-22T08:59:17.837Z,96956.78
2022-11-22T09:01:44.804Z,96965.63
2022-11-22T09:04:12.829Z,96966.00
2022-11-22T09:09:41.782Z,96976.91
2022-11-22T09:12:08.433Z,96986.16
2022-11-22T09:14:35.268Z,96990.78
2022-11-22T09:17:01.949Z,96986.97
2022-11-22T09:19:28.717Z,96991.78
2022-11-22T09:21:55.547Z,96988.38
2022-11-22T09:24:22.208Z,96986.38
2022-11-22T09:26:48.938Z,96986.38
2022-11-22T09:29:16.055Z,96982.53
2022-11-22T09:31:43.048Z,96984.16
2022-11-22T09:34:09.699Z,96984.97
2022-11-22T09:36:36.573Z,96978.72
2022-11-22T09:39:03.585Z,96969.69
2022-11-22T09:42:00.752Z,96977.34
2022-11-22T09:44:57.884Z,96971.69
2022-11-22T09:47:39.720Z,96974.88
2022-11-22T09:50:17.466Z,96966.25
2022-11-22T09:53:04.552Z,96970.47
2022-11-22T09:55:39.522Z,96968.06
2022-11-22T09:58:23.672Z,96966.84
2022-11-22T10:00:52.390Z,96967.44
2022-11-22T10:03:36.285Z,96974.88
2022-11-22T10:06:08.432Z,96976.47
2022-11-22T10:08:35.601Z,96981.09
2022-11-22T10:11:06.139Z,96979.06
2022-11-22T10:13:41.226Z,96979.69
2022-11-22T10:16:14.338Z,96975.03
2022-11-22T10:19:00.837Z,96974.03
2022-11-22T10:21:27.650Z,96978.06
2022-11-22T10:23:54.392Z,96983.69
2022-11-22T10:26:32.854Z,96986.88
2022-11-22T10:29:34.712Z,96981.47
2022-11-22T10:32:13.543Z,96974.41
2022-11-22T10:34:55.553Z,96969.78
2022-11-22T10:37:37.533Z,96975.00
2022-11-22T10:40:21.000Z,96966.13
2022-11-22T10:43:18.321Z,96966.34
2022-11-22T10:45:53.040Z,96960.31
2022-11-22T10:48:19.602Z,96965.56
2022-11-22T10:51:08.202Z,96964.56
2022-11-22T10:54:05.322Z,96963.72
2022-11-22T10:56:50.283Z,96964.34
2022-11-22T10:59:17.900Z,96958.47
2022-11-22T11:01:49.571Z,96953.66
2022-11-22T11:04:18.226Z,96956.88
2022-11-22T11:07:13.275Z,96964.06
2022-11-22T11:10:09.599Z,96952.44
2022-11-22T11:12:41.001Z,96951.00
2022-11-22T11:15:21.733Z,96946.78
2022-11-22T11:17:55.198Z,96938.72
2022-11-22T11:20:28.995Z,96928.88
2022-11-22T11:25:44.576Z,96928.44
2022-11-22T11:28:20.320Z,96926.25
2022-11-22T11:31:06.797Z,96927.88
2022-11-22T11:33:37.939Z,96921.41
2022-11-22T11:36:06.658Z,96926.00
2022-11-22T11:38:54.624Z,96926.97
2022-11-22T11:41:21.413Z,96923.34
2022-11-22T11:43:49.075Z,96929.19
2022-11-22T11:46:21.833Z,96936.81
2022-11-22T11:48:52.099Z,96940.19
2022-11-22T11:51:31.511Z,96942.09
2022-11-22T11:54:01.880Z,96942.09
2022-11-22T11:56:56.567Z,96939.81
2022-11-22T11:59:31.484Z,96951.91
2022-11-22T12:02:06.715Z,96948.94
2022-11-22T12:04:36.634Z,96948.28
2022-11-22T12:07:17.331Z,96943.13
2022-11-22T12:09:46.257Z,96942.69
2022-11-22T12:12:17.539Z,96943.63
2022-11-22T12:15:10.163Z,96934.91
2022-11-22T12:17:47.585Z,96937.56
2022-11-22T12:20:22.150Z,96936.25
2022-11-22T12:23:02.932Z,96933.38
2022-11-22T12:25:36.231Z,96931.06
2022-11-22T12:28:19.055Z,96936.47
2022-11-22T12:30:55.662Z,96936.19
2022-11-22T12:33:31.542Z,96928.53
2022-11-22T12:35:59.075Z,96929.56
2022-11-22T12:38:32.026Z,96925.84
2022-11-22T12:41:05.827Z,96930.41
2022-11-22T12:43:42.121Z,96942.25
2022-11-22T12:46:19.333Z,96933.13
2022-11-22T12:49:16.618Z,96932.34
2022-11-22T12:51:44.248Z,96927.09
2022-11-22T12:54:19.862Z,96933.41
2022-11-22T12:56:51.797Z,96939.91
2022-11-22T12:59:32.941Z,96946.13
2022-11-22T13:02:29.125Z,96947.16
2022-11-22T13:05:13.761Z,96953.38
2022-11-22T13:08:10.864Z,96956.19
2022-11-22T13:11:08.130Z,96965.84
2022-11-22T13:13:41.228Z,96961.59
2022-11-22T13:16:10.208Z,96971.28
2022-11-22T13:18:45.845Z,96968.38
2022-11-22T13:21:34.836Z,96974.44
2022-11-22T13:24:24.086Z,96957.47
2022-11-22T13:26:58.935Z,96961.56
2022-11-22T13:29:28.450Z,96964.94
2022-11-22T13:32:11.233Z,96966.16
2022-11-22T13:34:42.314Z,96967.19
2022-11-22T13:37:14.717Z,96961.34
2022-11-22T13:39:50.191Z,96956.94
2022-11-22T13:42:22.461Z,96952.97
2022-11-22T13:45:12.094Z,96958.16
2022-11-22T13:47:43.703Z,96946.88
2022-11-22T13:50:45.651Z,96955.16
2022-11-22T13:53:26.899Z,96947.91
2022-11-22T13:55:53.575Z,96942.69
2022-11-22T13:58:36.193Z,96941.91
2022-11-22T14:01:02.831Z,96948.97
2022-11-22T14:03:36.203Z,96943.72
2022-11-22T14:06:22.173Z,96935.06
2022-11-22T14:08:49.200Z,96928.19
2022-11-22T14:11:40.639Z,96931.22
2022-11-22T14:14:30.026Z,96929.22
2022-11-22T14:17:05.039Z,96932.81
2022-11-22T14:19:32.602Z,96932.81
2022-11-22T14:22:11.123Z,96933.59
2022-11-22T14:24:37.880Z,96932.59
2022-11-22T14:27:26.875Z,96943.06
2022-11-22T14:30:09.001Z,96944.44
2022-11-22T14:33:06.121Z,96944.41
2022-11-22T14:35:35.340Z,96954.88
2022-11-22T14:38:30.625Z,96957.09
2022-11-22T14:41:27.937Z,96950.47
2022-11-22T14:44:13.510Z,96949.47
2022-11-22T14:46:55.500Z,96954.66
2022-11-22T14:49:44.067Z,96958.13
2022-11-22T14:52:20.957Z,96959.88
2022-11-22T14:54:52.231Z,96958.69
2022-11-22T14:57:22.121Z,96964.56
2022-11-22T15:00:13.844Z,96961.19
2022-11-22T15:03:15.061Z,96974.34
2022-11-22T15:09:11.061Z,96979.00
2022-11-22T15:09:33.378Z,96982.69
2022-11-22T15:12:13.384Z,96990.75
2022-11-22T15:14:40.975Z,96991.97
2022-11-22T15:57:28.561Z,97058.94
2022-11-22T15:59:56.166Z,97058.38
2022-11-22T16:02:25.912Z,97053.34
2022-11-22T16:06:03.504Z,97060.97
2022-11-22T16:07:49.735Z,97062.38
2022-11-22T16:10:37.910Z,97061.75
2022-11-22T16:13:19.900Z,97058.56
2022-11-22T16:16:07.204Z,97064.16
2022-11-22T16:18:34.046Z,97057.34
2022-11-22T16:21:02.787Z,97065.19
2022-11-22T16:23:33.856Z,97066.00
2022-11-22T16:26:13.734Z,97066.00
2022-11-22T16:28:40.515Z,97072.41
2022-11-22T16:31:17.546Z,97073.03
2022-11-22T16:33:44.961Z,97068.19
2022-11-22T16:36:15.212Z,97077.06
2022-11-22T16:38:43.224Z,97074.03
2022-11-22T16:41:19.717Z,97083.28
2022-11-22T16:43:49.367Z,97084.47
2022-11-22T16:46:16.463Z,97084.69
2022-11-22T16:48:44.191Z,97087.53
2022-11-22T16:51:13.241Z,97089.53
2022-11-22T16:53:48.981Z,97095.75
2022-11-22T16:56:25.058Z,97099.38
2022-11-22T16:58:54.306Z,97101.81
2022-11-22T17:01:24.578Z,97104.00
2022-11-22T17:03:55.144Z,97100.97
2022-11-22T17:06:24.448Z,97100.97
2022-11-22T17:08:53.125Z,97105.84
2022-11-22T17:11:22.414Z,97110.44
2022-11-22T17:13:49.096Z,97108.25
2022-11-22T17:16:17.955Z,97108.84
2022-11-22T17:18:46.247Z,97107.84
2022-11-22T17:21:20.985Z,97101.00
2022-11-22T17:23:49.531Z,97108.44
2022-11-22T17:26:16.355Z,97111.06
2022-11-22T17:28:42.989Z,97109.28
2022-11-22T17:31:13.142Z,97119.53
2022-11-22T17:33:39.917Z,97118.53
2022-11-22T17:36:19.616Z,97123.53
2022-11-22T17:38:46.229Z,97118.13
2022-11-22T17:41:12.869Z,97122.13
2022-11-22T17:43:39.479Z,97123.31
2022-11-22T17:46:06.143Z,97124.94
2022-11-22T17:48:32.772Z,97129.19
2022-11-22T17:50:59.414Z,97131.19
2022-11-22T17:53:26.085Z,97124.75
2022-11-22T17:56:10.169Z,97125.56
2022-11-22T17:58:37.956Z,97127.59
2022-11-22T18:01:08.513Z,97129.59
2022-11-22T18:03:35.519Z,97119.94
2022-11-22T18:06:02.323Z,97124.97
2022-11-22T18:08:29.591Z,97125.78
2022-11-22T18:10:59.734Z,97124.13
2022-11-22T18:13:28.318Z,97124.78
2022-11-22T18:16:02.998Z,97116.94
2022-11-22T18:18:55.851Z,97124.38
2022-11-22T18:21:17.818Z,97123.56
2022-11-22T18:23:46.380Z,97124.78
2022-11-22T18:29:35.665Z,97133.81
2022-11-22T18:31:54.293Z,97129.19
2022-11-22T18:34:23.117Z,97133.00
2022-11-22T18:36:55.922Z,97140.44
2022-11-22T18:39:26.138Z,97142.44
2022-11-22T18:41:52.811Z,97138.22
2022-11-22T18:44:19.604Z,97143.84
2022-11-22T18:46:46.925Z,97140.66
2022-11-22T18:49:13.579Z,97146.47
2022-11-22T18:51:40.228Z,97148.09
2022-11-22T18:54:09.958Z,97144.84
2022-11-22T18:56:40.703Z,97150.69
2022-11-22T18:59:09.992Z,97149.69
2022-11-22T19:01:38.651Z,97146.47
2022-11-22T19:04:05.583Z,97152.69
2022-11-22T19:06:32.267Z,97151.69
2022-11-22T19:08:59.025Z,97150.50
2022-11-22T19:11:26.079Z,97155.09
2022-11-22T19:13:53.069Z,97152.69
2022-11-22T19:16:22.318Z,97153.50
2022-11-22T19:18:49.748Z,97149.28
2022-11-22T19:21:19.374Z,97157.53
2022-11-22T19:23:46.950Z,97156.50
2022-11-22T19:26:16.645Z,97159.72
2022-11-22T19:28:43.314Z,97164.34
2022-11-22T19:31:13.741Z,97166.75
2022-11-22T19:33:40.957Z,97175.41
2022-11-22T19:36:14.428Z,97169.34
2022-11-22T19:38:42.649Z,97176.41
2022-11-22T19:41:11.400Z,97178.00
2022-11-22T19:43:38.519Z,97171.78
2022-11-22T19:46:06.185Z,97174.00
2022-11-22T19:48:35.771Z,97174.63
2022-11-22T19:51:12.005Z,97178.44
2022-11-22T19:53:39.049Z,97175.19
2022-11-22T19:56:11.921Z,97181.03
2022-11-22T19:58:38.887Z,97185.25
2022-11-22T20:01:08.406Z,97187.25
2022-11-22T20:03:36.234Z,97191.06
2022-11-22T20:06:04.572Z,97185.22
2022-11-22T20:08:31.774Z,97190.47
2022-11-22T20:11:01.377Z,97187.66
2022-11-22T20:13:28.125Z,97193.47
2022-11-22T20:15:55.682Z,97189.47
2022-11-22T20:18:22.297Z,97190.84
2022-11-22T20:20:48.922Z,97193.88
2022-11-22T20:23:15.589Z,97190.66
2022-11-22T20:25:42.200Z,97190.06
2022-11-22T20:28:08.819Z,97200.69
2022-11-22T20:30:35.465Z,97197.69
2022-11-22T20:33:02.502Z,97203.50
2022-11-22T20:35:29.175Z,97190.25
2022-11-22T20:37:55.788Z,97195.47
2022-11-22T20:40:22.413Z,97194.47
2022-11-22T20:42:52.333Z,97192.25
2022-11-22T20:45:19.066Z,97190.84
2022-11-22T20:47:45.694Z,97195.44
2022-11-22T20:50:12.295Z,97193.44
2022-11-22T20:52:38.953Z,97190.81
2022-11-22T20:55:06.417Z,97193.66
2022-11-22T20:57:34.070Z,97195.66
2022-11-22T21:00:01.748Z,97200.09
2022-11-22T21:02:28.408Z,97199.88
2022-11-22T21:04:55.110Z,97205.72
2022-11-22T21:07:21.937Z,97201.28
2022-11-22T21:09:48.632Z,97209.53
2022-11-22T21:12:15.294Z,97203.88
2022-11-22T21:14:42.007Z,97207.91
2022-11-22T21:17:37.115Z,97208.13
2022-11-22T21:19:55.212Z,97201.47
2022-11-22T21:22:21.881Z,97201.88
2022-11-22T21:24:48.551Z,97201.06
2022-11-22T21:27:15.197Z,97202.47
2022-11-22T21:29:41.849Z,97201.69
2022-11-22T21:32:08.567Z,97198.25
2022-11-22T21:34:35.670Z,97192.25
2022-11-22T21:37:02.289Z,97187.63
2022-11-22T21:39:28.915Z,97188.63
2022-11-22T21:41:55.638Z,97193.66
2022-11-22T21:44:22.249Z,97191.63
2022-11-22T21:46:48.899Z,97199.06
2022-11-22T21:49:15.534Z,97197.66
2022-11-22T21:51:42.376Z,97192.63
2022-11-22T21:54:09.101Z,97198.25
2022-11-22T21:56:35.776Z,97206.50
2022-11-22T21:59:02.460Z,97209.50
2022-11-22T22:01:29.296Z,97213.72
2022-11-22T22:03:56.073Z,97214.75
2022-11-22T22:06:30.192Z,97219.13
2022-11-22T22:08:56.934Z,97219.56
2022-11-22T22:11:23.897Z,97217.53
2022-11-22T22:13:54.272Z,97211.72
2022-11-22T22:16:23.838Z,97212.50
2022-11-22T22:18:50.471Z,97219.34
2022-11-22T22:21:18.423Z,97222.75
2022-11-22T22:23:45.800Z,97221.16
2022-11-22T22:26:15.500Z,97220.72
2022-11-22T22:28:42.902Z,97228.38
2022-11-22T22:31:14.611Z,97220.94
2022-11-22T22:33:41.742Z,97224.34
2022-11-22T22:36:10.448Z,97219.59
2022-11-22T22:38:38.482Z,97224.41
2022-11-22T22:41:06.316Z,97219.16
2022-11-22T22:43:35.594Z,97226.03
2022-11-22T22:46:18.940Z,97229.03
2022-11-22T22:48:47.054Z,97233.66
2022-11-22T22:51:17.762Z,97228.81
2022-11-22T22:53:45.238Z,97227.19
2022-11-22T22:56:13.207Z,97233.22
2022-11-22T22:58:40.585Z,97234.63
2022-11-22T23:01:18.526Z,97231.63
2022-11-22T23:03:49.799Z,97223.38
2022-11-22T23:06:17.350Z,97230.22
2022-11-22T23:08:46.711Z,97236.03
2022-11-22T23:11:14.132Z,97236.22
2022-11-22T23:13:43.082Z,97237.44
2022-11-22T23:16:12.533Z,97236.44
2022-11-22T23:18:41.739Z,97236.84
2022-11-22T23:21:12.073Z,97232.81
2022-11-22T23:23:39.155Z,97239.25
2022-11-22T23:26:09.508Z,97230.03
2022-11-22T23:28:36.173Z,97233.84
2022-11-22T23:31:09.327Z,97229.81
2022-11-22T23:33:36.226Z,97230.22
2022-11-22T23:36:05.482Z,97224.59
2022-11-22T23:38:32.833Z,97223.19
2022-11-22T23:40:59.842Z,97227.41
2022-11-22T23:43:26.624Z,97229.25
2022-11-22T23:45:53.382Z,97223.41
2022-11-22T23:48:20.046Z,97221.56
2022-11-22T23:50:46.698Z,97226.03
2022-11-22T23:53:13.304Z,97231.47
2022-11-22T23:55:39.932Z,97232.22
2022-11-22T23:58:06.571Z,97229.47
